Time;durP1;ratioP1;P1;durP2;ratioP2;P2;SDS_P1;SDS_P2;PMS_P1;PMS_P2;Temp;Humidity;BMP_temperature;BMP_pressure;BME280_temperature;BME280_humidity;BME280_pressure;Samples;Min_cycle;Max_cycle;Signal;HPM_P1;HPM_P2
2024/04/01 00:00:51;;;;;;;17.30;3.80;;;;;;;12.15;100.00;100080.37;111026;1235;60635;-67
2024/04/01 00:03:18;;;;;;;20.40;4.10;;;;;;;12.13;100.00;100075.09;111053;1235;75802;-67
2024/04/01 00:05:58;;;;;;;15.00;3.80;;;;;;;12.11;100.00;100067.92;111034;1235;73145;-67
2024/04/01 00:08:25;;;;;;;11.70;3.90;;;;;;;12.10;100.00;100070.86;111025;1236;71268;-66
2024/04/01 00:10:52;;;;;;;15.20;4.00;;;;;;;12.10;100.00;100074.20;111004;1235;61751;-66
2024/04/01 00:13:19;;;;;;;15.70;4.20;;;;;;;12.11;100.00;100068.89;111047;1235;61189;-66
2024/04/01 00:15:46;;;;;;;14.40;4.50;;;;;;;12.13;100.00;100062.45;111013;1233;75872;-67
2024/04/01 00:18:13;;;;;;;14.80;4.00;;;;;;;12.14;100.00;100060.46;111090;1237;71539;-66
2024/04/01 00:20:40;;;;;;;12.20;4.00;;;;;;;12.15;100.00;100065.22;111029;1235;72336;-66
2024/04/01 00:23:08;;;;;;;18.80;4.80;;;;;;;12.17;100.00;100054.65;111026;1235;61908;-67
2024/04/01 00:25:34;;;;;;;16.80;3.70;;;;;;;12.18;100.00;100034.25;111045;1234;61997;-67
2024/04/01 00:28:03;;;;;;;13.50;4.10;;;;;;;12.19;100.00;100047.09;111068;1235;75852;-67
2024/04/01 00:30:31;;;;;;;14.10;4.20;;;;;;;12.21;100.00;100068.08;110987;1235;73135;-67
2024/04/01 00:32:58;;;;;;;14.90;4.00;;;;;;;12.24;100.00;100050.69;111006;1235;72368;-66
2024/04/01 00:35:26;;;;;;;18.70;4.80;;;;;;;12.27;100.00;100041.23;111010;1237;61924;-67
2024/04/01 00:37:53;;;;;;;16.70;4.40;;;;;;;12.29;100.00;100064.20;111016;1236;62189;-67
2024/04/01 00:40:19;;;;;;;15.90;4.10;;;;;;;12.32;100.00;100039.37;110800;1234;75609;-66
2024/04/01 00:42:47;;;;;;;13.50;4.40;;;;;;;12.34;100.00;100045.48;111003;1235;71857;-66
2024/04/01 00:45:14;;;;;;;17.20;4.00;;;;;;;12.36;100.00;100045.66;111053;1235;72041;-67
2024/04/01 00:47:41;;;;;;;14.30;4.60;;;;;;;12.37;100.00;100050.21;111047;1232;61907;-67
2024/04/01 00:50:07;;;;;;;18.50;3.90;;;;;;;12.39;100.00;100045.05;111012;1234;62089;-67
2024/04/01 00:52:35;;;;;;;14.10;4.10;;;;;;;12.40;100.00;100040.77;110969;1235;75683;-67
2024/04/01 00:55:06;;;;;;;19.40;4.80;;;;;;;12.40;100.00;100034.48;110874;1240;73063;-67
2024/04/01 00:57:33;;;;;;;15.90;4.80;;;;;;;12.40;100.00;100038.41;111074;1235;72677;-69
2024/04/01 01:00:00;;;;;;;16.50;4.30;;;;;;;12.38;100.00;100039.27;110983;1232;62259;-67
2024/04/01 01:02:29;;;;;;;16.70;4.90;;;;;;;12.37;100.00;100023.11;111005;1235;61994;-66
2024/04/01 01:04:56;;;;;;;17.70;4.60;;;;;;;12.36;100.00;100018.19;110987;1236;75432;-65
2024/04/01 01:07:23;;;;;;;14.70;4.40;;;;;;;12.33;100.00;100015.42;111037;1234;72008;-66
2024/04/01 01:09:50;;;;;;;12.60;4.30;;;;;;;12.31;100.00;100008.06;110799;1238;73015;-68
2024/04/01 01:12:17;;;;;;;18.30;4.70;;;;;;;12.27;100.00;100013.17;111067;1236;62032;-68
2024/04/01 01:14:44;;;;;;;18.60;4.70;;;;;;;12.23;100.00;100003.53;111020;1235;61908;-67
2024/04/01 01:17:13;;;;;;;13.90;3.60;;;;;;;12.14;100.00;99992.63;111041;1235;75482;-67
2024/04/01 01:19:40;;;;;;;16.10;4.20;;;;;;;12.04;100.00;99984.77;111015;1235;73056;-67
2024/04/01 01:22:07;;;;;;;15.30;4.90;;;;;;;11.93;100.00;99988.52;110610;1234;515518;-67
2024/04/01 01:24:35;;;;;;;17.30;4.30;;;;;;;11.85;100.00;99988.88;110979;1235;62191;-67
2024/04/01 01:27:02;;;;;;;15.10;5.40;;;;;;;11.81;100.00;99996.05;110952;1235;61876;-68
2024/04/01 01:29:29;;;;;;;15.50;4.30;;;;;;;11.77;100.00;100003.69;111008;1235;76486;-67
2024/04/01 01:31:59;;;;;;;16.40;4.80;;;;;;;11.74;100.00;99999.96;111060;1237;73055;-66
2024/04/01 01:34:29;;;;;;;15.40;4.30;;;;;;;11.71;100.00;99986.66;110961;1236;72608;-66
2024/04/01 01:36:56;;;;;;;13.80;5.00;;;;;;;11.67;100.00;99979.14;110962;1234;62794;-68
2024/04/01 01:39:23;;;;;;;14.70;4.00;;;;;;;11.61;100.00;99978.16;110872;1235;62052;-68
2024/04/01 01:41:51;;;;;;;13.80;4.30;;;;;;;11.56;100.00;99970.60;110980;1235;74933;-66
2024/04/01 01:44:17;;;;;;;15.60;4.30;;;;;;;11.52;100.00;99959.13;111013;1235;71443;-67
2024/04/01 01:46:45;;;;;;;13.60;4.10;;;;;;;11.45;100.00;99959.55;111009;1237;72612;-66
2024/04/01 01:49:12;;;;;;;12.80;4.30;;;;;;;11.39;100.00;99972.73;111018;1233;61997;-67
2024/04/01 01:51:40;;;;;;;17.90;4.70;;;;;;;11.36;100.00;99979.76;111029;1233;61907;-67
2024/04/01 01:54:07;;;;;;;18.00;4.90;;;;;;;11.35;100.00;99984.31;111060;1235;73755;-66
2024/04/01 01:56:34;;;;;;;15.30;4.00;;;;;;;11.36;100.00;99984.10;111042;1236;73534;-67
2024/04/01 01:59:02;;;;;;;14.50;4.20;;;;;;;11.35;100.00;99990.67;111022;1236;72635;-67
2024/04/01 02:01:29;;;;;;;16.60;4.40;;;;;;;11.34;100.00;100001.80;111055;1234;61888;-67
2024/04/01 02:03:56;;;;;;;17.50;4.90;;;;;;;11.35;100.00;100012.11;111019;1235;61175;-67
2024/04/01 02:06:25;;;;;;;18.70;5.20;;;;;;;11.36;100.00;100017.95;111025;1236;75749;-67
2024/04/01 02:08:52;;;;;;;17.90;4.60;;;;;;;11.36;100.00;100009.13;111018;1237;71751;-68
2024/04/01 02:11:20;;;;;;;14.80;4.40;;;;;;;11.36;100.00;100013.23;110997;1234;71379;-67
2024/04/01 02:13:47;;;;;;;17.70;5.00;;;;;;;11.35;100.00;100011.52;110996;1234;61951;-68
2024/04/01 02:16:14;;;;;;;14.50;4.60;;;;;;;11.33;100.00;99990.58;111037;1234;62007;-68
2024/04/01 02:18:41;;;;;;;15.60;4.70;;;;;;;11.28;100.00;99982.63;111002;1235;75343;-65
2024/04/01 02:21:08;;;;;;;16.30;4.40;;;;;;;11.22;100.00;99990.69;111047;1235;72452;-66
2024/04/01 02:23:35;;;;;;;13.40;4.10;;;;;;;11.18;100.00;99975.05;111063;1234;72303;-67
2024/04/01 02:26:04;;;;;;;16.00;4.70;;;;;;;11.15;100.00;99974.57;110968;1235;62116;-66
2024/04/01 02:28:31;;;;;;;28.40;5.50;;;;;;;11.12;100.00;99982.18;111056;1234;61036;-67
2024/04/01 02:30:59;;;;;;;18.90;5.30;;;;;;;11.10;100.00;99974.98;110828;1234;75649;-67
2024/04/01 02:33:26;;;;;;;14.70;5.20;;;;;;;11.09;100.00;99989.73;111064;1234;72703;-66
2024/04/01 02:35:53;;;;;;;15.00;4.30;;;;;;;11.10;100.00;99995.92;110993;1236;72425;-67
2024/04/01 02:38:20;;;;;;;13.40;4.30;;;;;;;11.10;100.00;99992.23;111004;1234;61879;-67
2024/04/01 02:40:47;;;;;;;20.60;4.50;;;;;;;11.12;100.00;99990.89;111006;1233;61891;-67
2024/04/01 02:43:14;;;;;;;19.40;4.90;;;;;;;11.12;100.00;99991.42;111028;1235;75367;-68
2024/04/01 02:45:41;;;;;;;17.00;4.70;;;;;;;11.11;100.00;99990.94;111038;1236;72720;-68
2024/04/01 02:48:08;;;;;;;16.90;4.40;;;;;;;11.11;100.00;100000.98;110981;1235;72963;-67
2024/04/01 02:50:35;;;;;;;15.30;4.80;;;;;;;11.12;100.00;100001.37;111002;1234;62076;-67
2024/04/01 02:53:02;;;;;;;16.40;4.90;;;;;;;11.12;100.00;99999.39;110990;1235;62007;-66
2024/04/01 02:55:29;;;;;;;19.80;5.40;;;;;;;11.13;100.00;99997.47;111029;1236;75355;-67
2024/04/01 02:57:56;;;;;;;19.10;5.10;;;;;;;11.13;100.00;99994.05;110983;1235;72510;-66
2024/04/01 03:00:25;;;;;;;16.20;4.80;;;;;;;11.15;100.00;99979.87;110840;1235;72378;-65
2024/04/01 03:02:52;;;;;;;16.50;5.90;;;;;;;11.15;100.00;99983.27;111058;1235;62010;-66
2024/04/01 03:05:20;;;;;;;19.10;5.00;;;;;;;11.17;100.00;99985.53;110986;1237;61884;-66
2024/04/01 03:07:49;;;;;;;19.40;5.40;;;;;;;11.17;100.00;99986.53;111048;1235;76251;-66
2024/04/01 03:10:18;;;;;;;19.70;5.20;;;;;;;11.17;100.00;99983.91;110899;1238;72386;-67
2024/04/01 03:12:47;;;;;;;19.90;4.80;;;;;;;11.16;100.00;99994.73;111019;1233;73050;-67
2024/04/01 03:15:19;;;;;;;16.50;4.50;;;;;;;11.16;100.00;99999.48;111027;1234;61933;-67
2024/04/01 03:17:46;;;;;;;19.30;5.40;;;;;;;11.14;100.00;99996.60;111004;1235;61927;-67
2024/04/01 03:20:13;;;;;;;23.30;5.90;;;;;;;11.13;100.00;99991.97;111037;1235;75342;-66
2024/04/01 03:22:40;;;;;;;17.30;4.50;;;;;;;11.12;100.00;99991.86;111061;1235;72774;-66
2024/04/01 03:25:08;;;;;;;16.60;4.80;;;;;;;11.13;100.00;99994.16;110997;1233;71848;-66
2024/04/01 03:27:35;;;;;;;19.30;4.90;;;;;;;11.13;100.00;99998.54;111009;1234;62138;-67
2024/04/01 03:30:03;;;;;;;16.60;4.80;;;;;;;11.15;100.00;99995.09;111002;1235;61904;-67
2024/04/01 03:32:30;;;;;;;18.60;4.90;;;;;;;11.18;100.00;99986.59;111047;1235;74471;-67
2024/04/01 03:34:57;;;;;;;17.00;4.70;;;;;;;11.20;100.00;99985.45;111021;1235;70837;-67
2024/04/01 03:37:24;;;;;;;15.50;4.50;;;;;;;11.23;100.00;99984.26;110968;1233;72952;-67
2024/04/01 03:39:51;;;;;;;19.80;5.40;;;;;;;11.25;100.00;99987.30;111009;1237;62437;-67
2024/04/01 03:42:18;;;;;;;19.50;5.20;;;;;;;11.27;100.00;99987.71;111037;1235;61997;-67
2024/04/01 03:44:45;;;;;;;21.30;5.30;;;;;;;11.31;100.00;99985.45;111010;1233;76879;-66
2024/04/01 03:47:12;;;;;;;16.40;4.60;;;;;;;11.34;100.00;99986.63;111051;1235;71060;-67
2024/04/01 03:49:39;;;;;;;17.30;4.80;;;;;;;11.36;100.00;99983.77;110991;1234;72817;-66
2024/04/01 03:52:06;;;;;;;16.20;4.80;;;;;;;11.38;100.00;99987.71;111018;1235;60869;-67
2024/04/01 03:54:34;;;;;;;17.30;4.70;;;;;;;11.39;100.00;99992.67;110978;1233;61907;-66
2024/04/01 03:57:01;;;;;;;14.90;4.60;;;;;;;11.40;100.00;99991.98;110981;1235;75023;-67
2024/04/01 03:59:28;;;;;;;21.50;4.70;;;;;;;11.40;100.00;99991.66;110983;1235;71263;-67
2024/04/01 04:01:57;;;;;;;17.80;4.90;;;;;;;11.41;100.00;99993.68;111003;1234;72587;-67
2024/04/01 04:04:24;;;;;;;16.60;4.70;;;;;;;11.41;100.00;99997.15;111007;1235;62215;-67
2024/04/01 04:06:51;;;;;;;18.10;5.20;;;;;;;11.43;100.00;99989.50;111039;1233;61895;-67
2024/04/01 04:09:18;;;;;;;17.00;4.80;;;;;;;11.45;100.00;99987.20;111053;1236;75816;-67
2024/04/01 04:11:51;;;;;;;14.70;4.80;;;;;;;11.46;100.00;99986.18;111045;1235;73761;-67
2024/04/01 04:14:19;;;;;;;17.00;5.10;;;;;;;11.48;100.00;99986.65;111036;1234;73863;-70
2024/04/01 04:16:46;;;;;;;17.00;4.80;;;;;;;11.51;100.00;99987.85;111012;1234;62019;-68
2024/04/01 04:19:14;;;;;;;15.40;5.20;;;;;;;11.56;100.00;99988.89;110992;1233;62110;-68
2024/04/01 04:21:41;;;;;;;17.60;5.00;;;;;;;11.59;100.00;99997.39;111012;1234;74206;-68
2024/04/01 04:24:11;;;;;;;19.20;5.00;;;;;;;11.64;100.00;99991.74;111033;1236;73223;-69
2024/04/01 04:26:38;;;;;;;18.70;4.50;;;;;;;11.69;100.00;99990.73;111090;1234;72501;-68
2024/04/01 04:29:06;;;;;;;19.00;4.70;;;;;;;11.73;100.00;99985.36;110966;1234;61911;-68
2024/04/01 04:31:33;;;;;;;14.30;4.60;;;;;;;11.77;100.00;99989.30;111013;1234;61907;-66
2024/04/01 04:34:08;;;;;;;17.60;4.60;;;;;;;11.81;100.00;99995.79;110984;1235;75941;-66
2024/04/01 04:36:36;;;;;;;20.30;5.10;;;;;;;11.84;100.00;99996.52;110909;1235;71167;-67
2024/04/01 04:39:19;;;;;;;18.00;5.00;;;;;;;11.90;100.00;99994.36;111003;1236;73334;-67
2024/04/01 04:41:49;;;;;;;16.60;5.00;;;;;;;11.98;100.00;99996.08;111094;1235;61776;-67
2024/04/01 04:44:16;;;;;;;16.30;5.00;;;;;;;12.05;100.00;99998.32;111009;1234;61856;-67
2024/04/01 04:46:43;;;;;;;17.30;4.90;;;;;;;12.13;100.00;99999.43;111031;1238;75771;-67
2024/04/01 04:49:10;;;;;;;18.80;4.60;;;;;;;12.19;100.00;99995.36;110861;1238;73245;-67
2024/04/01 04:51:37;;;;;;;17.10;4.80;;;;;;;12.27;100.00;99996.31;111006;1234;73164;-68
2024/04/01 04:54:04;;;;;;;18.00;4.90;;;;;;;12.35;100.00;99999.55;111028;1235;61850;-68
2024/04/01 04:56:31;;;;;;;17.60;5.10;;;;;;;12.43;100.00;99995.41;111087;1234;59544;-66
2024/04/01 04:58:59;;;;;;;19.20;5.10;;;;;;;12.51;100.00;99993.30;110875;1235;75496;-66
2024/04/01 05:01:26;;;;;;;17.10;5.00;;;;;;;12.59;100.00;99988.44;110994;1234;72739;-67
2024/04/01 05:03:54;;;;;;;17.80;5.10;;;;;;;12.68;100.00;99986.80;110980;1235;72442;-66
2024/04/01 05:06:20;;;;;;;15.80;4.80;;;;;;;12.77;100.00;99984.40;110941;1234;62019;-66
2024/04/01 05:08:47;;;;;;;18.30;4.90;;;;;;;12.84;100.00;99985.02;110872;1233;61911;-66
2024/04/01 05:11:15;;;;;;;15.80;4.70;;;;;;;12.91;100.00;99977.76;111018;1233;75727;-66
2024/04/01 05:13:44;;;;;;;21.00;5.20;;;;;;;12.98;100.00;99971.60;110959;1234;72689;-66
2024/04/01 05:16:14;;;;;;;13.50;5.30;;;;;;;13.05;100.00;99968.96;110956;1234;71096;-67
2024/04/01 05:18:41;;;;;;;17.30;4.80;;;;;;;13.11;100.00;99970.21;110838;1235;61933;-66
2024/04/01 05:34:39;;;;;;;16.30;5.10;;;;;;;13.55;100.00;99964.38;105682;1282;613924;-73
2024/04/01 05:37:07;;;;;;;15.10;4.90;;;;;;;14.02;100.00;99968.02;107212;1266;160113;-72
2024/04/01 05:39:35;;;;;;;22.10;5.80;;;;;;;14.10;100.00;99974.16;107312;1264;59647;-71
2024/04/01 05:42:02;;;;;;;17.90;5.30;;;;;;;14.17;100.00;99975.52;107365;1265;73118;-73
2024/04/01 05:44:30;;;;;;;16.00;5.00;;;;;;;14.24;100.00;99978.05;107808;1259;71434;-72
2024/04/01 05:46:57;;;;;;;15.00;4.80;;;;;;;14.33;100.00;99973.61;107755;1259;71407;-71
2024/04/01 05:49:24;;;;;;;18.10;5.30;;;;;;;14.42;100.00;99971.98;107985;1253;60406;-71
2024/04/01 05:51:52;;;;;;;17.10;5.50;;;;;;;14.52;100.00;99971.45;108082;1255;59642;-73
2024/04/01 05:54:20;;;;;;;21.20;5.60;;;;;;;14.62;100.00;99966.91;108100;1253;71789;-74
2024/04/01 05:56:47;;;;;;;18.00;5.50;;;;;;;14.72;99.51;99964.46;108238;1253;71460;-77
2024/04/01 05:59:15;;;;;;;22.40;6.10;;;;;;;14.82;98.80;99966.37;108207;1253;72080;-72
2024/04/01 06:01:43;;;;;;;20.30;6.20;;;;;;;14.93;98.01;99965.55;108246;1253;60497;-73
2024/04/01 06:04:10;;;;;;;18.40;5.30;;;;;;;15.04;95.90;99961.93;108233;1256;60954;-73
2024/04/01 06:06:38;;;;;;;19.00;5.40;;;;;;;15.14;94.56;99958.55;108128;1253;74053;-74
2024/04/01 06:09:06;;;;;;;18.30;5.30;;;;;;;15.25;93.42;99956.32;108279;1253;73404;-73
2024/04/01 06:11:35;;;;;;;19.70;5.30;;;;;;;15.39;92.35;99952.89;108301;1253;72023;-71
2024/04/01 06:14:03;;;;;;;17.20;4.90;;;;;;;15.52;90.86;99955.13;108262;1253;61650;-73
2024/04/01 06:16:31;;;;;;;20.20;5.30;;;;;;;15.64;89.57;99956.15;108101;1253;60482;-74
2024/04/01 06:18:58;;;;;;;22.20;6.10;;;;;;;15.77;88.51;99955.27;108193;1253;73662;-72
2024/04/01 06:21:26;;;;;;;17.70;5.10;;;;;;;15.89;87.21;99952.39;108264;1253;73660;-73
2024/04/01 06:24:00;;;;;;;16.50;4.90;;;;;;;15.99;86.16;99946.65;108211;1253;70423;-73
2024/04/01 06:26:28;;;;;;;17.80;5.30;;;;;;;16.10;85.06;99946.59;108327;1253;60315;-73
2024/04/01 06:28:55;;;;;;;17.80;5.60;;;;;;;16.23;84.28;99948.27;108167;1253;60574;-73
2024/04/01 06:31:23;;;;;;;20.10;5.20;;;;;;;16.34;82.94;99955.91;108167;1253;74344;-72
2024/04/01 06:33:51;;;;;;;16.30;5.00;;;;;;;16.41;81.32;99962.44;107984;1256;70290;-71
2024/04/01 06:36:22;;;;;;;19.10;6.30;;;;;;;16.46;80.36;99951.14;108033;1256;72039;-72
2024/04/01 06:38:50;;;;;;;12.50;5.10;;;;;;;16.51;79.09;99960.83;92812;1253;10001909;-70
2024/04/01 06:41:17;;;;;;;21.30;5.40;;;;;;;16.50;77.72;99958.58;107840;1256;60553;-70
2024/04/01 06:43:45;;;;;;;16.80;4.90;;;;;;;16.50;77.02;99958.70;108022;1253;60425;-71
2024/04/01 06:46:12;;;;;;;14.90;5.10;;;;;;;16.53;77.08;99955.70;107877;1253;60534;-71
2024/04/01 06:48:40;;;;;;;17.40;5.30;;;;;;;16.56;76.31;99947.47;107862;1253;60255;-71
2024/04/01 06:51:08;;;;;;;16.40;5.40;;;;;;;16.61;76.37;99954.72;107850;1253;74789;-71
2024/04/01 06:53:35;;;;;;;17.30;5.40;;;;;;;16.70;76.81;99957.90;107824;1253;75605;-70
2024/04/01 06:56:04;;;;;;;17.70;5.70;;;;;;;16.80;76.26;99959.74;108087;1253;72710;-71
2024/04/01 06:58:31;;;;;;;14.60;4.80;;;;;;;16.86;74.98;99962.16;107884;1256;62344;-71
2024/04/01 07:00:59;;;;;;;21.20;5.90;;;;;;;16.84;73.60;99965.52;107920;1253;60290;-71
2024/04/01 07:03:27;;;;;;;17.40;5.50;;;;;;;16.82;73.62;99966.17;108013;1254;73123;-71
2024/04/01 07:05:55;;;;;;;16.00;5.50;;;;;;;16.84;73.92;99967.92;107924;1253;75262;-71
2024/04/01 07:08:23;;;;;;;21.20;6.00;;;;;;;16.90;73.74;99974.45;107904;1253;73965;-72
2024/04/01 07:10:51;;;;;;;17.90;5.20;;;;;;;16.96;73.83;99974.11;107850;1258;59195;-70
2024/04/01 07:13:20;;;;;;;20.70;6.00;;;;;;;17.02;73.32;99972.00;107853;1254;60318;-71
2024/04/01 07:15:47;;;;;;;16.50;5.70;;;;;;;17.06;73.02;99976.05;108029;1253;74273;-70
2024/04/01 07:18:15;;;;;;;19.70;6.40;;;;;;;17.11;72.93;99976.02;107870;1253;72429;-71
2024/04/01 07:20:43;;;;;;;19.00;5.50;;;;;;;17.16;72.56;99976.58;108127;1254;71982;-73
2024/04/01 07:23:11;;;;;;;18.80;5.30;;;;;;;17.18;72.29;99981.13;108003;1254;60471;-73
2024/04/01 07:25:41;;;;;;;19.60;6.60;;;;;;;17.24;72.52;99983.66;108187;1253;61307;-74
2024/04/01 07:28:09;;;;;;;23.30;6.60;;;;;;;17.35;72.66;99978.06;108129;1253;73656;-73
2024/04/01 07:30:37;;;;;;;17.60;7.60;;;;;;;17.44;72.74;99972.77;108253;1254;73848;-74
2024/04/01 07:33:06;;;;;;;18.60;6.10;;;;;;;17.65;72.05;99972.67;108233;1253;71743;-73
2024/04/01 07:35:33;;;;;;;18.00;5.10;;;;;;;17.76;70.85;99971.50;108231;1253;60472;-74
2024/04/01 07:38:05;;;;;;;15.50;5.70;;;;;;;17.85;70.33;99971.67;108121;1253;61451;-73
2024/04/01 07:40:33;;;;;;;19.90;6.50;;;;;;;17.96;69.97;99968.73;108280;1253;74862;-72
2024/04/01 07:43:01;;;;;;;19.30;7.30;;;;;;;18.09;69.72;99966.30;108133;1253;71943;-73
2024/04/01 07:45:29;;;;;;;20.50;6.80;;;;;;;18.22;68.76;99966.52;108041;1253;70810;-73
2024/04/01 07:47:57;;;;;;;21.30;6.10;;;;;;;18.32;68.11;99958.91;107982;1253;62260;-73
2024/04/01 07:50:24;;;;;;;17.50;6.70;;;;;;;18.43;67.07;99958.12;108237;1253;60396;-75
2024/04/01 07:52:52;;;;;;;18.00;5.50;;;;;;;18.53;66.77;99963.61;108181;1253;73010;-72
2024/04/01 07:55:21;;;;;;;17.20;6.00;;;;;;;18.61;65.90;99961.86;108108;1253;73069;-75
2024/04/01 07:57:49;;;;;;;19.40;6.40;;;;;;;18.69;65.48;99961.28;108251;1253;73595;-74
2024/04/01 08:00:16;;;;;;;19.20;6.30;;;;;;;18.79;65.18;99961.07;108285;1258;60287;-73
2024/04/01 08:02:44;;;;;;;23.10;6.80;;;;;;;18.90;65.04;99964.07;108097;1253;60444;-72
2024/04/01 08:05:12;;;;;;;16.50;6.10;;;;;;;19.06;65.17;99963.66;108139;1253;75846;-74
2024/04/01 08:07:40;;;;;;;15.60;5.80;;;;;;;19.23;64.50;99964.77;107978;1255;72954;-73
2024/04/01 08:10:07;;;;;;;16.30;5.80;;;;;;;19.37;63.77;99966.63;108203;1253;73119;-73
2024/04/01 08:12:35;;;;;;;18.90;6.20;;;;;;;19.50;62.78;99966.41;108162;1254;62172;-74
2024/04/01 08:15:03;;;;;;;20.30;5.90;;;;;;;19.64;62.44;99967.94;108180;1253;60271;-74
2024/04/01 08:17:31;;;;;;;20.60;5.70;;;;;;;19.74;61.60;99964.34;108072;1254;76089;-73
2024/04/01 08:19:59;;;;;;;17.10;6.10;;;;;;;19.80;60.84;99960.70;108047;1255;72796;-73
2024/04/01 08:22:27;;;;;;;18.50;5.80;;;;;;;19.90;60.11;99958.58;108082;1253;74664;-72
2024/04/01 08:24:55;;;;;;;18.50;5.70;;;;;;;19.98;58.80;99959.38;108116;1256;60487;-74
2024/04/01 08:27:23;;;;;;;18.20;5.40;;;;;;;20.03;58.19;99954.91;107971;1253;60286;-74
2024/04/01 08:29:51;;;;;;;16.00;4.50;;;;;;;20.12;58.19;99954.92;108040;1253;74191;-72
2024/04/01 08:32:18;;;;;;;18.70;5.70;;;;;;;20.26;57.58;99957.61;108151;1253;70603;-75
2024/04/01 08:34:46;;;;;;;18.00;5.60;;;;;;;20.39;57.60;99962.00;108190;1255;72753;-73
2024/04/01 08:37:13;;;;;;;17.50;6.00;;;;;;;20.52;57.53;99961.84;108227;1253;62339;-73
2024/04/01 08:39:41;;;;;;;17.20;5.40;;;;;;;20.68;56.91;99962.98;108094;1259;62370;-74
2024/04/01 08:42:12;;;;;;;16.50;5.00;;;;;;;20.82;55.82;99964.27;108205;1258;75888;-74
2024/04/01 08:44:39;;;;;;;17.30;5.30;;;;;;;20.91;54.42;99962.45;108058;1253;73072;-74
2024/04/01 08:47:07;;;;;;;19.30;6.00;;;;;;;20.97;53.80;99961.73;108123;1258;72967;-74
2024/04/01 08:49:38;;;;;;;19.20;5.20;;;;;;;21.02;53.95;99962.33;107992;1256;60378;-72
2024/04/01 08:52:07;;;;;;;19.90;5.80;;;;;;;21.15;54.80;99963.82;107976;1254;61345;-73
2024/04/01 08:54:35;;;;;;;16.40;5.40;;;;;;;21.32;54.80;99962.54;108241;1253;72640;-73
2024/04/01 08:57:03;;;;;;;17.60;5.90;;;;;;;21.49;54.59;99961.10;108007;1254;74293;-73
2024/04/01 08:59:31;;;;;;;20.60;5.90;;;;;;;21.65;54.42;99958.99;108083;1253;75043;-74
2024/04/01 09:01:59;;;;;;;18.70;5.90;;;;;;;21.75;53.69;99957.64;108135;1253;60277;-73
2024/04/01 09:04:28;;;;;;;24.50;6.50;;;;;;;21.81;53.63;99954.16;108245;1253;60429;-74
2024/04/01 09:06:56;;;;;;;16.20;5.30;;;;;;;21.89;53.27;99949.63;108361;1258;76029;-75
2024/04/01 09:09:24;;;;;;;14.90;5.40;;;;;;;21.98;53.15;99947.13;108247;1253;74886;-74
2024/04/01 09:11:51;;;;;;;20.00;6.20;;;;;;;22.07;52.99;99943.80;108166;1253;71695;-73
2024/04/01 09:14:18;;;;;;;23.70;5.80;;;;;;;22.18;52.62;99937.52;107971;1253;60278;-73
2024/04/01 09:16:48;;;;;;;18.00;6.00;;;;;;;22.31;52.36;99935.40;108289;1254;61106;-75
2024/04/01 09:19:16;;;;;;;20.00;5.90;;;;;;;22.42;51.83;99932.57;108130;1253;76119;-72
2024/04/01 09:21:48;;;;;;;22.20;6.40;;;;;;;22.53;51.37;99928.02;108172;1253;75112;-73
2024/04/01 09:24:16;;;;;;;18.20;6.10;;;;;;;22.63;50.77;99928.80;108116;1254;71769;-74
2024/04/01 09:26:44;;;;;;;20.80;6.10;;;;;;;22.71;50.42;99926.66;108177;1254;61279;-73
2024/04/01 09:29:11;;;;;;;17.60;5.70;;;;;;;22.82;50.26;99926.74;108045;1255;62284;-73
2024/04/01 09:31:38;;;;;;;18.60;6.50;;;;;;;22.91;49.89;99924.78;108242;1258;72717;-73
2024/04/01 09:34:06;;;;;;;20.00;6.50;;;;;;;22.96;49.45;99924.44;108042;1253;72218;-72
2024/04/01 09:36:35;;;;;;;20.30;6.90;;;;;;;22.99;49.31;99924.96;108186;1253;75446;-74
2024/04/01 09:39:04;;;;;;;19.10;6.20;;;;;;;22.99;48.78;99924.20;108196;1254;60664;-73
2024/04/01 09:41:32;;;;;;;22.00;6.40;;;;;;;22.98;48.72;99927.13;108083;1253;61038;-74
2024/04/01 09:44:00;;;;;;;25.50;6.50;;;;;;;22.99;48.67;99922.23;108149;1258;76707;-74
2024/04/01 09:46:27;;;;;;;21.80;6.30;;;;;;;23.03;49.01;99922.57;108260;1255;72612;-73
2024/04/01 09:48:55;;;;;;;21.00;6.20;;;;;;;23.11;48.99;99922.04;108051;1253;74901;-74
2024/04/01 09:51:23;;;;;;;17.80;6.10;;;;;;;23.20;49.04;99920.14;108063;1253;61077;-74
2024/04/01 09:53:50;;;;;;;18.60;6.00;;;;;;;23.30;49.12;99916.29;108066;1253;61034;-74
2024/04/01 09:56:50;;;;;;;18.20;6.10;;;;;;;23.45;48.81;99916.20;108243;1254;77491;-73
2024/04/01 09:59:21;;;;;;;22.40;6.60;;;;;;;23.65;48.25;99907.32;108126;1253;74849;-74
2024/04/01 10:02:24;;;;;;;23.10;6.80;;;;;;;23.76;47.69;99902.95;108079;1254;74893;-72
2024/04/01 10:05:14;;;;;;;23.40;6.40;;;;;;;23.92;46.87;99901.90;108221;1253;61167;-74
2024/04/01 10:07:48;;;;;;;26.60;6.70;;;;;;;24.01;46.57;99893.40;108109;1253;61137;-72
2024/04/01 10:10:31;;;;;;;20.20;6.50;;;;;;;24.11;46.42;99889.92;108275;1253;77020;-73
2024/04/01 10:13:41;;;;;;;22.20;6.90;;;;;;;24.21;46.32;99890.48;108103;1253;72050;-73
2024/04/01 10:16:31;;;;;;;24.10;6.10;;;;;;;24.32;45.98;99890.97;108268;1253;74935;-74
2024/04/01 10:19:14;;;;;;;19.70;6.30;;;;;;;24.39;45.73;99883.12;108269;1259;61469;-73
2024/04/01 10:22:44;;;;;;;19.80;6.70;;;;;;;24.47;45.44;99886.09;108298;1253;61104;-73
2024/04/01 10:25:39;;;;;;;20.00;6.40;;;;;;;24.55;45.19;99880.50;107957;1254;76027;-73
2024/04/01 10:28:32;;;;;;;19.10;6.20;;;;;;;24.59;45.07;99877.14;108265;1254;75113;-73
2024/04/01 10:31:31;;;;;;;20.90;6.30;;;;;;;24.62;44.93;99877.17;108277;1258;72069;-74
2024/04/01 10:34:17;;;;;;;19.00;6.50;;;;;;;24.68;44.76;99878.20;108135;1258;62293;-73
2024/04/01 10:37:23;;;;;;;22.60;7.00;;;;;;;24.76;44.67;99877.38;108235;1253;62172;-76
2024/04/01 10:40:02;;;;;;;30.10;7.10;;;;;;;24.82;44.22;99879.57;108210;1259;75008;-74
2024/04/01 10:42:58;;;;;;;21.10;6.90;;;;;;;24.87;44.39;99876.89;108144;1253;72140;-74
2024/04/01 10:45:52;;;;;;;19.70;6.40;;;;;;;24.95;44.07;99872.16;108217;1254;75051;-72
2024/04/01 10:48:25;;;;;;;21.80;6.10;;;;;;;24.99;44.00;99866.67;108167;1255;60141;-74
2024/04/01 10:51:11;;;;;;;20.20;6.20;;;;;;;25.03;44.24;99860.24;108017;1260;61072;-73
2024/04/01 10:53:56;;;;;;;20.60;5.90;;;;;;;25.10;43.69;99856.41;108074;1259;75214;-73
2024/04/01 10:56:45;;;;;;;19.30;6.80;;;;;;;25.06;43.34;99853.72;108081;1260;75070;-73
2024/04/01 10:59:35;;;;;;;20.30;6.90;;;;;;;24.97;43.08;99855.23;107959;1258;75467;-73
2024/04/01 11:02:37;;;;;;;23.40;6.20;;;;;;;24.84;43.24;99856.02;108055;1259;61122;-73
2024/04/01 11:05:29;;;;;;;21.00;6.00;;;;;;;24.76;43.36;99855.29;108119;1258;60940;-72
2024/04/01 11:08:09;;;;;;;21.60;5.60;;;;;;;24.70;43.33;99851.23;108063;1254;77007;-73
2024/04/01 11:10:42;;;;;;;20.60;6.70;;;;;;;24.66;43.67;99851.34;108093;1254;73047;-73
2024/04/01 11:13:18;;;;;;;24.30;6.10;;;;;;;24.70;44.03;99846.62;108099;1254;72511;-75
2024/04/01 11:15:47;;;;;;;18.50;5.90;;;;;;;24.82;43.84;99845.69;108004;1254;61884;-74
2024/04/01 11:18:15;;;;;;;23.40;6.70;;;;;;;24.90;43.58;99841.35;108131;1253;62413;-74
2024/04/01 11:20:57;;;;;;;24.40;7.50;;;;;;;24.99;43.66;99837.48;108206;1254;75094;-74
2024/04/01 11:23:38;;;;;;;;;;;;;;;25.14;43.55;99842.36;108065;1254;71779;-74
2024/04/01 11:26:33;;;;;;;21.20;6.70;;;;;;;25.30;42.92;99835.84;108122;1254;72943;-73
2024/04/01 11:29:26;;;;;;;21.40;6.20;;;;;;;25.42;42.87;99832.91;108206;1254;61084;-74
2024/04/01 11:32:09;;;;;;;26.60;6.10;;;;;;;25.55;42.74;99830.54;108170;1254;60462;-73
2024/04/01 11:35:03;;;;;;;20.10;6.70;;;;;;;25.65;42.46;99827.21;108028;1259;76914;-73
2024/04/01 11:37:35;;;;;;;24.90;6.90;;;;;;;25.76;42.28;99822.70;108015;1259;72955;-73
2024/04/01 11:40:06;;;;;;;21.80;6.60;;;;;;;25.86;42.18;99820.07;108152;1256;72871;-73